sensor_id;sensor_type;location;lat;lon;timestamp;pressure;altitude;pressure_sealevel;temperature;humidity
76847;BME280;65813;49.546;8.644;2023-03-23T05:17:18;99791.22;;;12.74;67.60
76847;BME280;65813;49.546;8.644;2023-03-23T05:21:18;99799.25;;;12.74;67.32
76847;BME280;65813;49.546;8.644;2023-03-23T05:25:19;99803.72;;;12.83;67.70
76847;BME280;65813;49.546;8.644;2023-03-23T05:29:19;99807.53;;;12.81;67.04
76847;BME280;65813;49.546;8.644;2023-03-23T05:33:20;99807.25;;;12.74;66.99
76847;BME280;65813;49.546;8.644;2023-03-23T05:37:20;99797.97;;;12.78;66.88
76847;BME280;65813;49.546;8.644;2023-03-23T05:41:20;99800.66;;;12.78;66.96
76847;BME280;65813;49.546;8.644;2023-03-23T05:45:21;99805.72;;;12.72;66.43
76847;BME280;65813;49.546;8.644;2023-03-23T05:49:22;99815.00;;;12.77;66.59
76847;BME280;65813;49.546;8.644;2023-03-23T05:53:24;99814.44;;;12.74;66.69
76847;BME280;65813;49.546;8.644;2023-03-23T05:57:25;99819.78;;;12.74;67.00
76847;BME280;65813;49.546;8.644;2023-03-23T06:01:27;99828.63;;;12.74;67.34
76847;BME280;65813;49.546;8.644;2023-03-23T06:05:27;99828.78;;;12.82;66.78
76847;BME280;65813;49.546;8.644;2023-03-23T06:09:29;99838.06;;;12.78;67.05
76847;BME280;65813;49.546;8.644;2023-03-23T06:13:30;99844.84;;;12.82;66.68
76847;BME280;65813;49.546;8.644;2023-03-23T06:17:31;99835.13;;;12.81;66.23
76847;BME280;65813;49.546;8.644;2023-03-23T06:21:31;99835.53;;;12.86;66.13
76847;BME280;65813;49.546;8.644;2023-03-23T06:25:33;99846.78;;;12.80;66.59
76847;BME280;65813;49.546;8.644;2023-03-23T06:29:33;99843.81;;;12.83;66.10
76847;BME280;65813;49.546;8.644;2023-03-23T06:33:34;99848.19;;;12.84;66.88
76847;BME280;65813;49.546;8.644;2023-03-23T06:37:36;99836.53;;;12.85;66.17
76847;BME280;65813;49.546;8.644;2023-03-23T06:41:36;99840.31;;;12.83;66.14
76847;BME280;65813;49.546;8.644;2023-03-23T06:45:37;99839.63;;;12.81;66.85
76847;BME280;65813;49.546;8.644;2023-03-23T06:49:37;99845.81;;;12.81;66.22
76847;BME280;65813;49.546;8.644;2023-03-23T06:53:37;99848.59;;;12.80;66.42
76847;BME280;65813;49.546;8.644;2023-03-23T06:57:38;99858.19;;;12.82;66.84
76847;BME280;65813;49.546;8.644;2023-03-23T07:01:38;99854.09;;;12.88;67.30
76847;BME280;65813;49.546;8.644;2023-03-23T07:05:38;99863.94;;;12.87;67.24
76847;BME280;65813;49.546;8.644;2023-03-23T07:09:39;99871.13;;;12.87;66.95
76847;BME280;65813;49.546;8.644;2023-03-23T07:13:39;99885.34;;;12.87;66.61
76847;BME280;65813;49.546;8.644;2023-03-23T07:17:40;99891.41;;;12.89;67.72
76847;BME280;65813;49.546;8.644;2023-03-23T07:21:41;99903.06;;;12.88;66.62
76847;BME280;65813;49.546;8.644;2023-03-23T07:25:42;99916.00;;;12.83;68.81
76847;BME280;65813;49.546;8.644;2023-03-23T07:29:43;99889.84;;;12.87;67.98
76847;BME280;65813;49.546;8.644;2023-03-23T07:33:44;99901.66;;;12.84;68.24
76847;BME280;65813;49.546;8.644;2023-03-23T07:37:45;99907.56;;;12.88;67.96
76847;BME280;65813;49.546;8.644;2023-03-23T07:41:48;99907.84;;;12.94;67.13
76847;BME280;65813;49.546;8.644;2023-03-23T07:45:49;99910.13;;;13.08;65.97
76847;BME280;65813;49.546;8.644;2023-03-23T07:49:49;99925.88;;;13.02;66.58
76847;BME280;65813;49.546;8.644;2023-03-23T07:53:50;99945.44;;;13.02;67.16
76847;BME280;65813;49.546;8.644;2023-03-23T07:57:53;99937.84;;;12.98;67.73
76847;BME280;65813;49.546;8.644;2023-03-23T08:01:53;99962.59;;;13.00;67.58
76847;BME280;65813;49.546;8.644;2023-03-23T08:05:57;99946.13;;;12.95;68.37
76847;BME280;65813;49.546;8.644;2023-03-23T08:09:59;99950.34;;;12.97;67.04
76847;BME280;65813;49.546;8.644;2023-03-23T08:13:59;99961.22;;;12.96;67.91
76847;BME280;65813;49.546;8.644;2023-03-23T08:18:00;99959.91;;;13.00;67.99
76847;BME280;65813;49.546;8.644;2023-03-23T08:22:01;99968.38;;;12.95;68.06
76847;BME280;65813;49.546;8.644;2023-03-23T08:26:01;99963.88;;;12.96;68.22
76847;BME280;65813;49.546;8.644;2023-03-23T08:30:03;99966.97;;;12.91;68.50
76847;BME280;65813;49.546;8.644;2023-03-23T08:34:06;99976.53;;;12.94;67.98
76847;BME280;65813;49.546;8.644;2023-03-23T08:38:07;99978.22;;;12.95;68.29
76847;BME280;65813;49.546;8.644;2023-03-23T08:42:08;99974.84;;;12.93;68.30
76847;BME280;65813;49.546;8.644;2023-03-23T08:46:08;99984.69;;;12.92;68.63
76847;BME280;65813;49.546;8.644;2023-03-23T08:50:14;99982.72;;;12.94;68.93
76847;BME280;65813;49.546;8.644;2023-03-23T08:54:15;99992.56;;;12.94;68.97
76847;BME280;65813;49.546;8.644;2023-03-23T08:58:17;99993.41;;;12.94;70.08
76847;BME280;65813;49.546;8.644;2023-03-23T09:02:18;99986.34;;;12.84;71.27
76847;BME280;65813;49.546;8.644;2023-03-23T09:06:18;99990.25;;;12.70;72.15
76847;BME280;65813;49.546;8.644;2023-03-23T09:10:19;100011.59;;;12.60;73.40
76847;BME280;65813;49.546;8.644;2023-03-23T09:14:20;99997.84;;;12.65;73.37
76847;BME280;65813;49.546;8.644;2023-03-23T09:18:20;100015.28;;;12.69;73.01
76847;BME280;65813;49.546;8.644;2023-03-23T09:22:21;100007.13;;;12.71;72.49
76847;BME280;65813;49.546;8.644;2023-03-23T09:26:24;100020.09;;;12.75;73.03
76847;BME280;65813;49.546;8.644;2023-03-23T09:30:31;100028.28;;;12.83;72.45
76847;BME280;65813;49.546;8.644;2023-03-23T09:34:32;100023.66;;;12.85;72.03
76847;BME280;65813;49.546;8.644;2023-03-23T09:38:35;100028.56;;;12.90;71.96
76847;BME280;65813;49.546;8.644;2023-03-23T09:51:51;100034.88;;;13.19;68.60
76847;BME280;65813;49.546;8.644;2023-03-23T09:55:53;100051.22;;;13.16;64.50
76847;BME280;65813;49.546;8.644;2023-03-23T10:00:11;100042.63;;;13.12;66.00
76847;BME280;65813;49.546;8.644;2023-03-23T10:08:26;100029.13;;;13.24;66.52
76847;BME280;65813;49.546;8.644;2023-03-23T10:12:33;100027.31;;;13.34;67.07
76847;BME280;65813;49.546;8.644;2023-03-23T10:16:42;100018.56;;;13.32;66.92
76847;BME280;65813;49.546;8.644;2023-03-23T10:20:56;100003.25;;;13.34;67.22
76847;BME280;65813;49.546;8.644;2023-03-23T10:25:15;100007.03;;;13.41;67.26
76847;BME280;65813;49.546;8.644;2023-03-23T10:29:50;99998.16;;;13.50;68.16
76847;BME280;65813;49.546;8.644;2023-03-23T10:33:57;100002.94;;;13.56;68.01
76847;BME280;65813;49.546;8.644;2023-03-23T10:38:04;100002.53;;;13.60;67.93
76847;BME280;65813;49.546;8.644;2023-03-23T10:42:08;99997.34;;;13.69;66.94
76847;BME280;65813;49.546;8.644;2023-03-23T10:51:00;100008.41;;;14.02;66.47
76847;BME280;65813;49.546;8.644;2023-03-23T10:59:27;100010.66;;;14.07;65.09
76847;BME280;65813;49.546;8.644;2023-03-23T11:03:44;100026.16;;;14.13;65.25
76847;BME280;65813;49.546;8.644;2023-03-23T11:07:56;100015.41;;;14.23;64.44
76847;BME280;65813;49.546;8.644;2023-03-23T11:11:57;100024.47;;;14.12;64.22
76847;BME280;65813;49.546;8.644;2023-03-23T11:15:58;100015.03;;;14.08;64.54
76847;BME280;65813;49.546;8.644;2023-03-23T11:20:09;100019.53;;;14.07;65.47
76847;BME280;65813;49.546;8.644;2023-03-23T11:24:11;100017.44;;;14.01;66.44
76847;BME280;65813;49.546;8.644;2023-03-23T11:28:12;100028.56;;;13.97;66.50
76847;BME280;65813;49.546;8.644;2023-03-23T11:32:14;100026.47;;;13.91;66.69
76847;BME280;65813;49.546;8.644;2023-03-23T11:36:15;100024.06;;;13.88;67.67
76847;BME280;65813;49.546;8.644;2023-03-23T11:40:18;100025.91;;;13.87;67.81
76847;BME280;65813;49.546;8.644;2023-03-23T11:44:21;100018.28;;;13.83;67.83
76847;BME280;65813;49.546;8.644;2023-03-23T11:52:45;100019.84;;;13.76;69.07
76847;BME280;65813;49.546;8.644;2023-03-23T11:56:46;100024.50;;;13.74;69.12
76847;BME280;65813;49.546;8.644;2023-03-23T12:18:09;100013.53;;;13.67;69.97
76847;BME280;65813;49.546;8.644;2023-03-23T12:26:29;100011.53;;;13.69;69.85
76847;BME280;65813;49.546;8.644;2023-03-23T12:30:51;100014.66;;;13.74;69.22
76847;BME280;65813;49.546;8.644;2023-03-23T12:44:11;99984.63;;;13.80;68.03
76847;BME280;65813;49.546;8.644;2023-03-23T12:48:16;99984.63;;;13.80;68.39
76847;BME280;65813;49.546;8.644;2023-03-23T12:52:27;99977.69;;;13.87;67.66
76847;BME280;65813;49.546;8.644;2023-03-23T12:56:50;99956.84;;;13.91;67.42
76847;BME280;65813;49.546;8.644;2023-03-23T13:01:04;99947.22;;;14.07;66.88
76847;BME280;65813;49.546;8.644;2023-03-23T13:05:12;99938.09;;;14.28;67.46
76847;BME280;65813;49.546;8.644;2023-03-23T13:09:29;99937.84;;;14.31;67.64
76847;BME280;65813;49.546;8.644;2023-03-23T13:18:44;99929.63;;;14.32;68.14
76847;BME280;65813;49.546;8.644;2023-03-23T13:26:53;99939.84;;;14.19;67.82
76847;BME280;65813;49.546;8.644;2023-03-23T13:35:03;99933.22;;;14.13;67.71
76847;BME280;65813;49.546;8.644;2023-03-23T13:39:06;99942.09;;;14.14;67.63
76847;BME280;65813;49.546;8.644;2023-03-23T13:43:31;99950.75;;;14.08;67.64
76847;BME280;65813;49.546;8.644;2023-03-23T13:47:38;99948.91;;;14.08;68.11
76847;BME280;65813;49.546;8.644;2023-03-23T13:55:49;99934.50;;;14.19;66.79
76847;BME280;65813;49.546;8.644;2023-03-23T13:59:56;99935.81;;;14.05;67.74
76847;BME280;65813;49.546;8.644;2023-03-23T14:03:59;99935.09;;;14.03;67.14
76847;BME280;65813;49.546;8.644;2023-03-23T14:12:22;99942.44;;;14.01;67.61
76847;BME280;65813;49.546;8.644;2023-03-23T14:16:32;99925.53;;;14.01;67.71
76847;BME280;65813;49.546;8.644;2023-03-23T14:20:36;99912.28;;;13.99;67.85
76847;BME280;65813;49.546;8.644;2023-03-23T14:24:40;99918.22;;;14.03;68.37
76847;BME280;65813;49.546;8.644;2023-03-23T14:28:43;99918.75;;;14.06;68.13
76847;BME280;65813;49.546;8.644;2023-03-23T14:32:44;99935.38;;;14.00;68.60
76847;BME280;65813;49.546;8.644;2023-03-23T14:36:46;99924.13;;;13.97;68.15
76847;BME280;65813;49.546;8.644;2023-03-23T14:40:47;99928.94;;;13.84;68.76
76847;BME280;65813;49.546;8.644;2023-03-23T14:44:49;99938.00;;;13.73;69.64
76847;BME280;65813;49.546;8.644;2023-03-23T14:48:50;99941.94;;;13.69;69.58
76847;BME280;65813;49.546;8.644;2023-03-23T14:52:51;99928.00;;;13.65;69.92
76847;BME280;65813;49.546;8.644;2023-03-23T14:56:51;99920.53;;;13.69;70.05
76847;BME280;65813;49.546;8.644;2023-03-23T15:01:03;99925.19;;;13.67;69.87
76847;BME280;65813;49.546;8.644;2023-03-23T15:05:11;99917.41;;;13.83;68.55
76847;BME280;65813;49.546;8.644;2023-03-23T15:09:16;99926.16;;;13.85;68.02
76847;BME280;65813;49.546;8.644;2023-03-23T15:13:18;99928.66;;;13.87;68.07
76847;BME280;65813;49.546;8.644;2023-03-23T15:17:24;99928.66;;;13.87;68.95
76847;BME280;65813;49.546;8.644;2023-03-23T15:21:52;99943.22;;;13.75;69.26
76847;BME280;65813;49.546;8.644;2023-03-23T15:25:54;99931.22;;;13.69;69.20
76847;BME280;65813;49.546;8.644;2023-03-23T15:29:59;99914.91;;;13.72;69.75
76847;BME280;65813;49.546;8.644;2023-03-23T15:34:04;99926.69;;;13.79;69.37
76847;BME280;65813;49.546;8.644;2023-03-23T15:38:20;99937.13;;;13.73;70.06
76847;BME280;65813;49.546;8.644;2023-03-23T15:46:26;99943.34;;;13.73;69.83
76847;BME280;65813;49.546;8.644;2023-03-23T15:54:30;99935.75;;;13.78;69.26
76847;BME280;65813;49.546;8.644;2023-03-23T15:58:32;99926.69;;;13.79;69.43
76847;BME280;65813;49.546;8.644;2023-03-23T16:02:32;99919.09;;;13.84;69.48
76847;BME280;65813;49.546;8.644;2023-03-23T16:06:35;99913.16;;;13.90;68.94
76847;BME280;65813;49.546;8.644;2023-03-23T16:10:36;99907.09;;;13.88;69.14
76847;BME280;65813;49.546;8.644;2023-03-23T16:14:36;99903.84;;;13.94;67.73
76847;BME280;65813;49.546;8.644;2023-03-23T16:18:37;99895.50;;;13.97;68.18
76847;BME280;65813;49.546;8.644;2023-03-23T16:22:37;99894.53;;;13.98;68.17
76847;BME280;65813;49.546;8.644;2023-03-23T16:26:37;99898.91;;;13.99;68.27
76847;BME280;65813;49.546;8.644;2023-03-23T16:30:41;99896.22;;;13.99;68.37
76847;BME280;65813;49.546;8.644;2023-03-23T16:34:41;99890.03;;;13.99;68.80
76847;BME280;65813;49.546;8.644;2023-03-23T16:38:42;99886.63;;;13.97;68.99
76847;BME280;65813;49.546;8.644;2023-03-23T16:42:42;99886.94;;;13.94;68.98
76847;BME280;65813;49.546;8.644;2023-03-23T16:46:43;99887.09;;;13.92;70.23
76847;BME280;65813;49.546;8.644;2023-03-23T16:50:43;99881.47;;;13.86;70.74
76847;BME280;65813;49.546;8.644;2023-03-23T16:54:44;99883.44;;;13.84;70.59
76847;BME280;65813;49.546;8.644;2023-03-23T16:58:44;99883.31;;;13.85;70.30
76847;BME280;65813;49.546;8.644;2023-03-23T17:02:46;99882.03;;;13.89;70.77
76847;BME280;65813;49.546;8.644;2023-03-23T17:06:46;99877.81;;;13.77;70.38
76847;BME280;65813;49.546;8.644;2023-03-23T17:10:48;99885.00;;;13.77;69.83
76847;BME280;65813;49.546;8.644;2023-03-23T17:14:48;99877.25;;;13.74;69.91
76847;BME280;65813;49.546;8.644;2023-03-23T17:18:49;99871.22;;;14.08;69.28
76847;BME280;65813;49.546;8.644;2023-03-23T17:22:49;99876.47;;;14.10;68.99
76847;BME280;65813;49.546;8.644;2023-03-23T17:26:50;99869.66;;;14.15;68.75
76847;BME280;65813;49.546;8.644;2023-03-23T17:30:51;99866.41;;;14.12;69.17
76847;BME280;65813;49.546;8.644;2023-03-23T17:34:52;99861.19;;;14.10;68.85
76847;BME280;65813;49.546;8.644;2023-03-23T17:38:52;99859.22;;;14.12;69.31
76847;BME280;65813;49.546;8.644;2023-03-23T17:42:53;99869.78;;;14.14;68.09
76847;BME280;65813;49.546;8.644;2023-03-23T17:46:53;99869.16;;;14.02;68.85
76847;BME280;65813;49.546;8.644;2023-03-23T17:50:55;99877.56;;;14.07;68.82
76847;BME280;65813;49.546;8.644;2023-03-23T17:54:56;99865.75;;;14.00;69.03
76847;BME280;65813;49.546;8.644;2023-03-23T17:58:57;99860.44;;;13.91;71.20
76847;BME280;65813;49.546;8.644;2023-03-23T18:02:57;99867.38;;;13.84;72.70
76847;BME280;65813;49.546;8.644;2023-03-23T18:06:57;99865.41;;;13.86;73.85
76847;BME280;65813;49.546;8.644;2023-03-23T18:10:58;99868.66;;;13.80;74.24
76847;BME280;65813;49.546;8.644;2023-03-23T18:14:58;99865.53;;;13.84;74.47
76847;BME280;65813;49.546;8.644;2023-03-23T18:18:59;99876.56;;;13.81;72.57
76847;BME280;65813;49.546;8.644;2023-03-23T18:23:00;99875.72;;;13.71;71.90
76847;BME280;65813;49.546;8.644;2023-03-23T18:27:02;99873.59;;;13.75;71.66
76847;BME280;65813;49.546;8.644;2023-03-23T18:31:07;99863.75;;;13.75;72.14
76847;BME280;65813;49.546;8.644;2023-03-23T18:35:09;99861.94;;;13.56;72.83
76847;BME280;65813;49.546;8.644;2023-03-23T18:39:10;99851.53;;;13.53;72.34
76847;BME280;65813;49.546;8.644;2023-03-23T18:43:11;99840.88;;;13.44;72.63
76847;BME280;65813;49.546;8.644;2023-03-23T18:47:12;99838.88;;;13.46;72.11
76847;BME280;65813;49.546;8.644;2023-03-23T18:51:12;99838.91;;;13.36;72.87
76847;BME280;65813;49.546;8.644;2023-03-23T18:55:13;99846.38;;;13.33;72.79
76847;BME280;65813;49.546;8.644;2023-03-23T18:59:13;99850.19;;;13.21;73.63
76847;BME280;65813;49.546;8.644;2023-03-23T19:03:13;99849.34;;;13.30;73.32
76847;BME280;65813;49.546;8.644;2023-03-23T19:07:15;99857.19;;;13.31;72.82
76847;BME280;65813;49.546;8.644;2023-03-23T19:11:16;99864.13;;;13.14;74.22
76847;BME280;65813;49.546;8.644;2023-03-23T19:15:17;99850.03;;;13.22;72.82
76847;BME280;65813;49.546;8.644;2023-03-23T19:19:18;99842.88;;;13.13;74.11
76847;BME280;65813;49.546;8.644;2023-03-23T19:23:19;99844.13;;;13.19;72.76
76847;BME280;65813;49.546;8.644;2023-03-23T19:27:20;99845.69;;;13.11;74.13
76847;BME280;65813;49.546;8.644;2023-03-23T19:31:20;99851.00;;;13.02;74.89
76847;BME280;65813;49.546;8.644;2023-03-23T19:35:23;99845.78;;;13.00;74.06
76847;BME280;65813;49.546;8.644;2023-03-23T19:39:24;99831.00;;;12.96;74.51
76847;BME280;65813;49.546;8.644;2023-03-23T19:43:24;99830.47;;;13.02;73.65
76847;BME280;65813;49.546;8.644;2023-03-23T19:47:25;99831.31;;;12.93;73.83
76847;BME280;65813;49.546;8.644;2023-03-23T19:51:26;99830.88;;;13.07;73.22
76847;BME280;65813;49.546;8.644;2023-03-23T19:55:26;99823.84;;;13.06;73.06
76847;BME280;65813;49.546;8.644;2023-03-23T19:59:27;99816.81;;;12.96;73.20
76847;BME280;65813;49.546;8.644;2023-03-23T20:03:27;99827.06;;;13.00;72.64
76847;BME280;65813;49.546;8.644;2023-03-23T20:07:28;99822.16;;;13.05;72.32
76847;BME280;65813;49.546;8.644;2023-03-23T20:11:29;99811.91;;;13.10;71.85
76847;BME280;65813;49.546;8.644;2023-03-23T20:15:30;99811.91;;;13.20;71.15
76847;BME280;65813;49.546;8.644;2023-03-23T20:19:30;99804.44;;;13.24;71.01
76847;BME280;65813;49.546;8.644;2023-03-23T20:23:32;99802.00;;;13.40;69.10
76847;BME280;65813;49.546;8.644;2023-03-23T20:27:33;99793.34;;;13.65;67.36
76847;BME280;65813;49.546;8.644;2023-03-23T20:31:37;99793.38;;;13.83;65.81
76847;BME280;65813;49.546;8.644;2023-03-23T20:35:38;99796.91;;;14.10;64.50
76847;BME280;65813;49.546;8.644;2023-03-23T20:39:39;99799.22;;;14.05;64.46
76847;BME280;65813;49.546;8.644;2023-03-23T20:43:42;99783.53;;;14.38;63.25
76847;BME280;65813;49.546;8.644;2023-03-23T20:47:42;99780.56;;;14.41;62.93
76847;BME280;65813;49.546;8.644;2023-03-23T20:51:43;99777.56;;;14.44;62.74
76847;BME280;65813;49.546;8.644;2023-03-23T20:55:43;99780.16;;;14.36;62.96
76847;BME280;65813;49.546;8.644;2023-03-23T20:59:44;99786.50;;;14.35;62.95
76847;BME280;65813;49.546;8.644;2023-03-23T21:03:45;99772.81;;;14.38;62.70
76847;BME280;65813;49.546;8.644;2023-03-23T21:07:45;99778.16;;;14.38;62.40
76847;BME280;65813;49.546;8.644;2023-03-23T21:11:45;99769.72;;;14.33;62.52
76847;BME280;65813;49.546;8.644;2023-03-23T21:15:46;99763.41;;;14.34;62.32
76847;BME280;65813;49.546;8.644;2023-03-23T21:19:47;99752.44;;;14.27;62.87
76847;BME280;65813;49.546;8.644;2023-03-23T21:23:47;99753.47;;;14.16;63.32
76847;BME280;65813;49.546;8.644;2023-03-23T21:27:51;99751.94;;;14.32;62.07
76847;BME280;65813;49.546;8.644;2023-03-23T21:31:52;99744.34;;;14.37;61.68
76847;BME280;65813;49.546;8.644;2023-03-23T21:35:54;99742.06;;;14.32;62.17
76847;BME280;65813;49.546;8.644;2023-03-23T21:39:54;99744.75;;;14.32;61.89
76847;BME280;65813;49.546;8.644;2023-03-23T21:43:55;99746.34;;;14.25;62.15
76847;BME280;65813;49.546;8.644;2023-03-23T21:47:56;99745.06;;;14.29;62.03
76847;BME280;65813;49.546;8.644;2023-03-23T21:51:57;99742.91;;;14.33;61.46
76847;BME280;65813;49.546;8.644;2023-03-23T21:55:58;99736.19;;;14.29;61.98
76847;BME280;65813;49.546;8.644;2023-03-23T21:59:58;99723.53;;;14.21;62.59
76847;BME280;65813;49.546;8.644;2023-03-23T22:03:59;99724.47;;;14.30;61.76
76847;BME280;65813;49.546;8.644;2023-03-23T22:08:00;99722.94;;;14.27;61.89
76847;BME280;65813;49.546;8.644;2023-03-23T22:12:00;99722.56;;;14.22;62.24
